sensor_id;sensor_type;location;lat;lon;timestamp;temperature;humidity
51783;DHT22;37845;53.196;5.638;2023-06-10T02:18:20;15.80;99.90
51783;DHT22;37845;53.196;5.638;2023-06-10T02:25:32;15.70;99.90
51783;DHT22;37845;53.196;5.638;2023-06-10T06:27:13;17.50;99.90
51783;DHT22;37845;53.196;5.638;2023-06-10T06:29:38;17.50;99.90
51783;DHT22;37845;53.196;5.638;2023-06-10T06:32:05;17.60;99.90
51783;DHT22;37845;53.196;5.638;2023-06-10T06:34:31;17.60;99.90
51783;DHT22;37845;53.196;5.638;2023-06-10T06:43:56;17.50;99.90
51783;DHT22;37845;53.196;5.638;2023-06-10T06:46:26;17.90;99.90
51783;DHT22;37845;53.196;5.638;2023-06-10T06:52:52;17.10;99.90
51783;DHT22;37845;53.196;5.638;2023-06-10T06:58:08;17.60;99.90
51783;DHT22;37845;53.196;5.638;2023-06-10T07:00:34;18.20;99.90
51783;DHT22;37845;53.196;5.638;2023-06-10T07:03:00;18.10;99.90
51783;DHT22;37845;53.196;5.638;2023-06-10T07:05:25;18.20;99.90
51783;DHT22;37845;53.196;5.638;2023-06-10T07:07:53;18.30;99.90
51783;DHT22;37845;53.196;5.638;2023-06-10T07:10:22;18.40;99.90
51783;DHT22;37845;53.196;5.638;2023-06-10T07:12:48;18.50;99.90
51783;DHT22;37845;53.196;5.638;2023-06-10T07:15:14;18.60;99.90
51783;DHT22;37845;53.196;5.638;2023-06-10T07:17:40;18.60;99.90
51783;DHT22;37845;53.196;5.638;2023-06-10T07:20:06;18.60;99.90
51783;DHT22;37845;53.196;5.638;2023-06-10T07:22:32;18.60;99.90
51783;DHT22;37845;53.196;5.638;2023-06-10T07:24:58;18.60;99.90
51783;DHT22;37845;53.196;5.638;2023-06-10T07:27:24;18.70;99.90
51783;DHT22;37845;53.196;5.638;2023-06-10T07:29:51;18.80;99.90
51783;DHT22;37845;53.196;5.638;2023-06-10T07:32:16;18.80;99.90
51783;DHT22;37845;53.196;5.638;2023-06-10T07:34:42;18.90;99.90
51783;DHT22;37845;53.196;5.638;2023-06-10T07:37:08;19.00;99.90
51783;DHT22;37845;53.196;5.638;2023-06-10T07:39:34;19.10;99.90
51783;DHT22;37845;53.196;5.638;2023-06-10T07:42:00;19.10;99.90
51783;DHT22;37845;53.196;5.638;2023-06-10T07:44:26;19.20;99.90
51783;DHT22;37845;53.196;5.638;2023-06-10T07:46:52;19.20;99.90
51783;DHT22;37845;53.196;5.638;2023-06-10T07:49:17;19.40;99.90
51783;DHT22;37845;53.196;5.638;2023-06-10T07:51:43;19.50;99.90
51783;DHT22;37845;53.196;5.638;2023-06-10T07:54:09;19.50;99.90
51783;DHT22;37845;53.196;5.638;2023-06-10T07:56:37;19.60;99.90
51783;DHT22;37845;53.196;5.638;2023-06-10T07:59:03;19.60;99.90
51783;DHT22;37845;53.196;5.638;2023-06-10T08:01:29;19.70;99.90
51783;DHT22;37845;53.196;5.638;2023-06-10T08:03:55;19.80;99.90
51783;DHT22;37845;53.196;5.638;2023-06-10T08:06:21;19.90;99.90
51783;DHT22;37845;53.196;5.638;2023-06-10T08:08:47;19.90;99.90
51783;DHT22;37845;53.196;5.638;2023-06-10T08:11:15;20.00;99.90
51783;DHT22;37845;53.196;5.638;2023-06-10T08:13:41;20.30;99.90
51783;DHT22;37845;53.196;5.638;2023-06-10T08:16:07;20.20;99.90
51783;DHT22;37845;53.196;5.638;2023-06-10T08:18:33;20.20;99.90
51783;DHT22;37845;53.196;5.638;2023-06-10T08:20:59;20.30;99.90
51783;DHT22;37845;53.196;5.638;2023-06-10T08:23:25;20.30;99.90
51783;DHT22;37845;53.196;5.638;2023-06-10T08:25:51;20.40;99.90
51783;DHT22;37845;53.196;5.638;2023-06-10T08:28:17;20.50;99.90
51783;DHT22;37845;53.196;5.638;2023-06-10T08:30:43;20.50;99.90
51783;DHT22;37845;53.196;5.638;2023-06-10T08:33:09;20.60;99.90
51783;DHT22;37845;53.196;5.638;2023-06-10T08:35:35;20.70;99.90
51783;DHT22;37845;53.196;5.638;2023-06-10T08:38:01;20.80;99.90
51783;DHT22;37845;53.196;5.638;2023-06-10T08:40:26;20.80;99.90
51783;DHT22;37845;53.196;5.638;2023-06-10T08:43:05;21.00;99.90
51783;DHT22;37845;53.196;5.638;2023-06-10T08:45:35;21.10;99.90
51783;DHT22;37845;53.196;5.638;2023-06-10T08:48:05;21.20;99.90
51783;DHT22;37845;53.196;5.638;2023-06-10T08:50:35;21.20;99.90
51783;DHT22;37845;53.196;5.638;2023-06-10T08:53:05;21.30;99.90
51783;DHT22;37845;53.196;5.638;2023-06-10T08:55:40;21.40;99.90
51783;DHT22;37845;53.196;5.638;2023-06-10T08:58:07;21.40;99.90
51783;DHT22;37845;53.196;5.638;2023-06-10T09:00:34;21.50;99.90
51783;DHT22;37845;53.196;5.638;2023-06-10T09:03:01;21.60;99.90
51783;DHT22;37845;53.196;5.638;2023-06-10T09:05:29;21.60;99.90
51783;DHT22;37845;53.196;5.638;2023-06-10T09:07:56;21.60;99.90
51783;DHT22;37845;53.196;5.638;2023-06-10T09:10:22;21.80;99.90
51783;DHT22;37845;53.196;5.638;2023-06-10T09:12:48;21.90;99.90
51783;DHT22;37845;53.196;5.638;2023-06-10T09:15:14;22.00;99.90
51783;DHT22;37845;53.196;5.638;2023-06-10T09:17:43;22.00;99.90
51783;DHT22;37845;53.196;5.638;2023-06-10T09:20:09;22.10;99.90
51783;DHT22;37845;53.196;5.638;2023-06-10T09:22:35;22.10;99.90
51783;DHT22;37845;53.196;5.638;2023-06-10T09:25:06;22.20;99.90
51783;DHT22;37845;53.196;5.638;2023-06-10T09:27:44;22.30;99.90
51783;DHT22;37845;53.196;5.638;2023-06-10T09:30:28;22.40;99.90
51783;DHT22;37845;53.196;5.638;2023-06-10T09:32:57;22.40;99.90
51783;DHT22;37845;53.196;5.638;2023-06-10T09:35:24;22.50;99.90
51783;DHT22;37845;53.196;5.638;2023-06-10T09:37:52;22.50;99.90
51783;DHT22;37845;53.196;5.638;2023-06-10T09:40:18;22.60;99.90
51783;DHT22;37845;53.196;5.638;2023-06-10T09:42:58;22.70;99.90
51783;DHT22;37845;53.196;5.638;2023-06-10T09:45:29;22.80;99.90
51783;DHT22;37845;53.196;5.638;2023-06-10T09:47:56;22.80;99.90
51783;DHT22;37845;53.196;5.638;2023-06-10T09:50:22;22.80;99.90
51783;DHT22;37845;53.196;5.638;2023-06-10T09:52:50;22.80;99.90
51783;DHT22;37845;53.196;5.638;2023-06-10T09:55:17;22.90;99.90
51783;DHT22;37845;53.196;5.638;2023-06-10T09:57:44;23.00;99.90
51783;DHT22;37845;53.196;5.638;2023-06-10T10:00:14;23.10;99.90
51783;DHT22;37845;53.196;5.638;2023-06-10T10:02:47;23.20;99.90
51783;DHT22;37845;53.196;5.638;2023-06-10T10:05:15;23.30;99.30
51783;DHT22;37845;53.196;5.638;2023-06-10T10:07:52;23.30;99.30
51783;DHT22;37845;53.196;5.638;2023-06-10T10:10:20;23.40;99.10
51783;DHT22;37845;53.196;5.638;2023-06-10T10:12:55;23.00;99.40
51783;DHT22;37845;53.196;5.638;2023-06-10T10:15:32;23.70;98.90
51783;DHT22;37845;53.196;5.638;2023-06-10T10:18:09;23.80;98.60
51783;DHT22;37845;53.196;5.638;2023-06-10T10:20:45;23.90;98.40
51783;DHT22;37845;53.196;5.638;2023-06-10T10:23:14;24.00;98.40
51783;DHT22;37845;53.196;5.638;2023-06-10T10:25:44;24.00;98.10
51783;DHT22;37845;53.196;5.638;2023-06-10T10:28:14;24.00;98.30
51783;DHT22;37845;53.196;5.638;2023-06-10T10:30:41;24.00;97.90
51783;DHT22;37845;53.196;5.638;2023-06-10T10:33:22;24.10;98.60
51783;DHT22;37845;53.196;5.638;2023-06-10T10:35:50;24.20;99.40
51783;DHT22;37845;53.196;5.638;2023-06-10T10:38:17;24.30;99.30
51783;DHT22;37845;53.196;5.638;2023-06-10T10:40:44;24.30;99.60
51783;DHT22;37845;53.196;5.638;2023-06-10T10:43:20;24.40;99.40
51783;DHT22;37845;53.196;5.638;2023-06-10T10:45:58;24.40;99.70
51783;DHT22;37845;53.196;5.638;2023-06-10T10:48:24;24.50;99.30
51783;DHT22;37845;53.196;5.638;2023-06-10T10:51:02;24.50;99.70
51783;DHT22;37845;53.196;5.638;2023-06-10T10:53:29;24.60;98.80
51783;DHT22;37845;53.196;5.638;2023-06-10T10:56:04;24.70;99.00
51783;DHT22;37845;53.196;5.638;2023-06-10T10:58:30;24.70;98.90
51783;DHT22;37845;53.196;5.638;2023-06-10T11:00:57;24.70;98.80
51783;DHT22;37845;53.196;5.638;2023-06-10T11:03:28;24.70;98.30
51783;DHT22;37845;53.196;5.638;2023-06-10T11:05:57;24.70;98.20
51783;DHT22;37845;53.196;5.638;2023-06-10T11:14:29;25.00;97.70
51783;DHT22;37845;53.196;5.638;2023-06-10T11:16:59;25.10;97.00
51783;DHT22;37845;53.196;5.638;2023-06-10T11:19:35;25.20;97.70
51783;DHT22;37845;53.196;5.638;2023-06-10T11:22:16;25.20;97.50
51783;DHT22;37845;53.196;5.638;2023-06-10T11:25:00;25.30;97.00
51783;DHT22;37845;53.196;5.638;2023-06-10T11:27:25;24.90;96.50
51783;DHT22;37845;53.196;5.638;2023-06-10T11:30:17;25.30;96.50
51783;DHT22;37845;53.196;5.638;2023-06-10T11:32:46;25.40;96.30
51783;DHT22;37845;53.196;5.638;2023-06-10T11:35:20;25.50;96.30
51783;DHT22;37845;53.196;5.638;2023-06-10T11:37:49;25.60;95.90
51783;DHT22;37845;53.196;5.638;2023-06-10T11:40:18;25.70;95.80
51783;DHT22;37845;53.196;5.638;2023-06-10T11:42:44;25.70;95.40
51783;DHT22;37845;53.196;5.638;2023-06-10T11:45:15;25.70;95.00
51783;DHT22;37845;53.196;5.638;2023-06-10T11:47:55;25.70;94.30
51783;DHT22;37845;53.196;5.638;2023-06-10T11:50:32;25.80;94.00
51783;DHT22;37845;53.196;5.638;2023-06-10T11:52:58;25.80;94.20
51783;DHT22;37845;53.196;5.638;2023-06-10T11:55:48;25.90;94.30
51783;DHT22;37845;53.196;5.638;2023-06-10T11:58:18;26.00;95.10
51783;DHT22;37845;53.196;5.638;2023-06-10T12:00:51;26.00;96.30
51783;DHT22;37845;53.196;5.638;2023-06-10T12:03:25;26.10;96.30
51783;DHT22;37845;53.196;5.638;2023-06-10T12:06:02;26.10;96.10
51783;DHT22;37845;53.196;5.638;2023-06-10T12:08:28;26.10;97.40
51783;DHT22;37845;53.196;5.638;2023-06-10T12:10:59;26.10;97.70
51783;DHT22;37845;53.196;5.638;2023-06-10T12:13:27;26.00;98.30
51783;DHT22;37845;53.196;5.638;2023-06-10T12:15:53;26.10;98.80
51783;DHT22;37845;53.196;5.638;2023-06-10T12:18:21;26.00;99.90
51783;DHT22;37845;53.196;5.638;2023-06-10T12:20:47;26.00;99.90
51783;DHT22;37845;53.196;5.638;2023-06-10T12:23:14;26.10;99.90
51783;DHT22;37845;53.196;5.638;2023-06-10T12:25:52;26.00;99.90
51783;DHT22;37845;53.196;5.638;2023-06-10T12:28:26;26.20;99.90
51783;DHT22;37845;53.196;5.638;2023-06-10T12:31:06;25.90;99.90
51783;DHT22;37845;53.196;5.638;2023-06-10T12:33:33;26.00;99.90
51783;DHT22;37845;53.196;5.638;2023-06-10T12:35:58;26.00;99.90
51783;DHT22;37845;53.196;5.638;2023-06-10T12:38:26;26.20;99.90
51783;DHT22;37845;53.196;5.638;2023-06-10T12:41:01;26.20;99.90
51783;DHT22;37845;53.196;5.638;2023-06-10T12:43:27;26.00;99.90
51783;DHT22;37845;53.196;5.638;2023-06-10T12:45:53;26.00;99.90
51783;DHT22;37845;53.196;5.638;2023-06-10T12:48:21;26.20;99.90
51783;DHT22;37845;53.196;5.638;2023-06-10T12:50:51;26.20;99.90
51783;DHT22;37845;53.196;5.638;2023-06-10T12:53:18;26.20;99.90
51783;DHT22;37845;53.196;5.638;2023-06-10T12:55:44;26.30;99.90
51783;DHT22;37845;53.196;5.638;2023-06-10T12:58:13;26.20;99.90
51783;DHT22;37845;53.196;5.638;2023-06-10T13:00:40;26.20;99.90
51783;DHT22;37845;53.196;5.638;2023-06-10T13:03:08;26.30;99.90
51783;DHT22;37845;53.196;5.638;2023-06-10T13:05:35;26.20;99.90
51783;DHT22;37845;53.196;5.638;2023-06-10T13:08:04;26.20;99.90
51783;DHT22;37845;53.196;5.638;2023-06-10T13:10:30;26.10;99.90
51783;DHT22;37845;53.196;5.638;2023-06-10T13:12:56;26.20;99.90
51783;DHT22;37845;53.196;5.638;2023-06-10T13:15:22;26.10;99.90
51783;DHT22;37845;53.196;5.638;2023-06-10T13:17:48;26.10;99.90
51783;DHT22;37845;53.196;5.638;2023-06-10T13:20:16;26.10;99.90
51783;DHT22;37845;53.196;5.638;2023-06-10T13:22:41;26.10;99.90
51783;DHT22;37845;53.196;5.638;2023-06-10T13:25:08;26.20;99.90
51783;DHT22;37845;53.196;5.638;2023-06-10T13:27:36;26.20;99.90
51783;DHT22;37845;53.196;5.638;2023-06-10T13:30:06;26.20;99.90
51783;DHT22;37845;53.196;5.638;2023-06-10T13:32:33;26.20;99.90
51783;DHT22;37845;53.196;5.638;2023-06-10T13:34:58;26.20;99.90
51783;DHT22;37845;53.196;5.638;2023-06-10T13:37:24;26.10;99.90
51783;DHT22;37845;53.196;5.638;2023-06-10T13:39:51;26.00;99.90
51783;DHT22;37845;53.196;5.638;2023-06-10T13:42:20;26.00;99.90
51783;DHT22;37845;53.196;5.638;2023-06-10T13:44:47;25.90;99.90
51783;DHT22;37845;53.196;5.638;2023-06-10T13:47:14;25.90;99.90
51783;DHT22;37845;53.196;5.638;2023-06-10T13:49:40;25.80;99.90
51783;DHT22;37845;53.196;5.638;2023-06-10T13:52:07;25.90;99.90
51783;DHT22;37845;53.196;5.638;2023-06-10T13:54:38;26.00;99.90
51783;DHT22;37845;53.196;5.638;2023-06-10T13:57:04;26.10;99.90
51783;DHT22;37845;53.196;5.638;2023-06-10T13:59:30;26.00;99.90
51783;DHT22;37845;53.196;5.638;2023-06-10T14:01:55;26.00;99.90
51783;DHT22;37845;53.196;5.638;2023-06-10T14:04:22;25.90;99.90
51783;DHT22;37845;53.196;5.638;2023-06-10T14:06:48;25.90;99.90
51783;DHT22;37845;53.196;5.638;2023-06-10T14:09:14;26.00;99.90
51783;DHT22;37845;53.196;5.638;2023-06-10T14:11:40;25.90;99.90
51783;DHT22;37845;53.196;5.638;2023-06-10T14:14:05;25.80;99.90
51783;DHT22;37845;53.196;5.638;2023-06-10T14:16:31;25.80;99.90
51783;DHT22;37845;53.196;5.638;2023-06-10T14:18:57;25.80;99.90
51783;DHT22;37845;53.196;5.638;2023-06-10T14:21:24;25.60;99.90
51783;DHT22;37845;53.196;5.638;2023-06-10T14:23:50;25.60;99.90
51783;DHT22;37845;53.196;5.638;2023-06-10T14:26:17;25.60;99.90
51783;DHT22;37845;53.196;5.638;2023-06-10T14:28:43;25.70;99.90
51783;DHT22;37845;53.196;5.638;2023-06-10T14:31:09;25.70;99.90
51783;DHT22;37845;53.196;5.638;2023-06-10T14:33:34;25.80;99.90
51783;DHT22;37845;53.196;5.638;2023-06-10T14:36:00;25.80;99.90
51783;DHT22;37845;53.196;5.638;2023-06-10T14:38:26;25.90;99.90
51783;DHT22;37845;53.196;5.638;2023-06-10T14:40:52;26.00;99.90
51783;DHT22;37845;53.196;5.638;2023-06-10T14:43:18;26.00;99.90
51783;DHT22;37845;53.196;5.638;2023-06-10T14:45:44;26.00;99.90
51783;DHT22;37845;53.196;5.638;2023-06-10T14:48:12;26.00;99.90
51783;DHT22;37845;53.196;5.638;2023-06-10T14:50:38;26.10;99.90
51783;DHT22;37845;53.196;5.638;2023-06-10T14:53:05;26.10;99.90
51783;DHT22;37845;53.196;5.638;2023-06-10T14:55:32;26.10;99.90
51783;DHT22;37845;53.196;5.638;2023-06-10T14:57:57;26.00;99.90
51783;DHT22;37845;53.196;5.638;2023-06-10T15:00:24;26.10;99.90
51783;DHT22;37845;53.196;5.638;2023-06-10T15:02:50;26.10;99.90
51783;DHT22;37845;53.196;5.638;2023-06-10T15:05:17;26.00;99.90
51783;DHT22;37845;53.196;5.638;2023-06-10T15:07:45;26.20;99.90
51783;DHT22;37845;53.196;5.638;2023-06-10T15:10:12;26.10;99.90
51783;DHT22;37845;53.196;5.638;2023-06-10T15:12:38;26.20;99.90
51783;DHT22;37845;53.196;5.638;2023-06-10T15:15:04;26.20;99.90
51783;DHT22;37845;53.196;5.638;2023-06-10T15:17:30;26.20;99.90
51783;DHT22;37845;53.196;5.638;2023-06-10T15:19:55;26.00;99.90
51783;DHT22;37845;53.196;5.638;2023-06-10T15:22:21;26.30;99.90
51783;DHT22;37845;53.196;5.638;2023-06-10T15:24:47;26.30;99.90
51783;DHT22;37845;53.196;5.638;2023-06-10T15:27:13;26.20;99.90
51783;DHT22;37845;53.196;5.638;2023-06-10T15:29:39;26.20;99.90
51783;DHT22;37845;53.196;5.638;2023-06-10T15:32:05;26.30;99.90
51783;DHT22;37845;53.196;5.638;2023-06-10T15:34:31;26.30;99.90
51783;DHT22;37845;53.196;5.638;2023-06-10T15:36:57;26.20;99.90
51783;DHT22;37845;53.196;5.638;2023-06-10T15:39:25;26.20;99.90
51783;DHT22;37845;53.196;5.638;2023-06-10T15:41:52;26.10;99.90
51783;DHT22;37845;53.196;5.638;2023-06-10T15:44:18;26.10;99.90
51783;DHT22;37845;53.196;5.638;2023-06-10T15:46:44;26.00;99.90
51783;DHT22;37845;53.196;5.638;2023-06-10T15:49:11;26.00;99.90
51783;DHT22;37845;53.196;5.638;2023-06-10T15:51:37;26.10;99.90
51783;DHT22;37845;53.196;5.638;2023-06-10T15:54:03;26.10;99.90
51783;DHT22;37845;53.196;5.638;2023-06-10T15:56:29;26.00;99.90
51783;DHT22;37845;53.196;5.638;2023-06-10T15:58:54;26.00;99.90
51783;DHT22;37845;53.196;5.638;2023-06-10T16:01:20;26.10;99.90
51783;DHT22;37845;53.196;5.638;2023-06-10T16:03:46;26.00;99.90
51783;DHT22;37845;53.196;5.638;2023-06-10T16:06:12;26.00;99.90
51783;DHT22;37845;53.196;5.638;2023-06-10T16:08:38;26.00;99.90
51783;DHT22;37845;53.196;5.638;2023-06-10T16:11:03;26.10;99.90
51783;DHT22;37845;53.196;5.638;2023-06-10T16:13:29;26.00;99.90
51783;DHT22;37845;53.196;5.638;2023-06-10T16:15:55;26.10;99.90
51783;DHT22;37845;53.196;5.638;2023-06-10T16:18:21;26.20;99.90
51783;DHT22;37845;53.196;5.638;2023-06-10T16:20:47;26.20;99.90
51783;DHT22;37845;53.196;5.638;2023-06-10T16:23:13;26.10;99.90
51783;DHT22;37845;53.196;5.638;2023-06-10T16:25:38;26.20;99.90
51783;DHT22;37845;53.196;5.638;2023-06-10T16:28:05;26.10;99.90
51783;DHT22;37845;53.196;5.638;2023-06-10T16:30:31;25.90;99.90
51783;DHT22;37845;53.196;5.638;2023-06-10T16:32:58;26.00;99.90
51783;DHT22;37845;53.196;5.638;2023-06-10T16:35:24;26.00;99.90
51783;DHT22;37845;53.196;5.638;2023-06-10T16:37:50;26.00;99.90
51783;DHT22;37845;53.196;5.638;2023-06-10T16:40:15;26.10;99.90
51783;DHT22;37845;53.196;5.638;2023-06-10T16:42:41;26.20;99.90
51783;DHT22;37845;53.196;5.638;2023-06-10T16:45:08;26.30;99.90
51783;DHT22;37845;53.196;5.638;2023-06-10T16:47:34;26.30;99.90
51783;DHT22;37845;53.196;5.638;2023-06-10T16:50:00;26.30;99.90
51783;DHT22;37845;53.196;5.638;2023-06-10T16:52:25;26.30;99.90
51783;DHT22;37845;53.196;5.638;2023-06-10T16:54:53;26.30;99.90
51783;DHT22;37845;53.196;5.638;2023-06-10T16:57:22;26.40;99.90
51783;DHT22;37845;53.196;5.638;2023-06-10T16:59:53;26.30;99.90
51783;DHT22;37845;53.196;5.638;2023-06-10T17:02:26;26.50;99.90
51783;DHT22;37845;53.196;5.638;2023-06-10T17:04:52;26.40;99.90
51783;DHT22;37845;53.196;5.638;2023-06-10T17:07:22;26.40;99.90
51783;DHT22;37845;53.196;5.638;2023-06-10T17:09:51;26.20;99.90
51783;DHT22;37845;53.196;5.638;2023-06-10T17:12:19;26.20;99.90
51783;DHT22;37845;53.196;5.638;2023-06-10T17:14:49;26.20;99.90
51783;DHT22;37845;53.196;5.638;2023-06-10T17:17:14;26.30;99.90
51783;DHT22;37845;53.196;5.638;2023-06-10T17:19:49;26.40;99.90
51783;DHT22;37845;53.196;5.638;2023-06-10T17:22:15;26.20;99.90
51783;DHT22;37845;53.196;5.638;2023-06-10T17:24:52;26.20;99.90
51783;DHT22;37845;53.196;5.638;2023-06-10T17:27:30;26.20;99.90
51783;DHT22;37845;53.196;5.638;2023-06-10T17:30:01;26.20;99.90
51783;DHT22;37845;53.196;5.638;2023-06-10T17:32:43;26.20;99.90
51783;DHT22;37845;53.196;5.638;2023-06-10T17:35:12;26.30;99.90
51783;DHT22;37845;53.196;5.638;2023-06-10T17:37:41;26.30;99.90
51783;DHT22;37845;53.196;5.638;2023-06-10T17:40:09;26.10;99.90
51783;DHT22;37845;53.196;5.638;2023-06-10T17:42:47;26.00;99.90
51783;DHT22;37845;53.196;5.638;2023-06-10T17:45:16;25.90;99.90
51783;DHT22;37845;53.196;5.638;2023-06-10T17:47:54;25.70;99.90
51783;DHT22;37845;53.196;5.638;2023-06-10T17:50:22;25.70;99.90
51783;DHT22;37845;53.196;5.638;2023-06-10T17:52:48;25.50;99.90
51783;DHT22;37845;53.196;5.638;2023-06-10T17:55:19;25.60;99.90
51783;DHT22;37845;53.196;5.638;2023-06-10T17:57:45;25.60;99.90
51783;DHT22;37845;53.196;5.638;2023-06-10T18:00:12;25.50;99.90
51783;DHT22;37845;53.196;5.638;2023-06-10T18:02:38;25.50;99.90
51783;DHT22;37845;53.196;5.638;2023-06-10T18:05:07;25.70;99.90
51783;DHT22;37845;53.196;5.638;2023-06-10T18:07:35;25.50;99.90
51783;DHT22;37845;53.196;5.638;2023-06-10T18:10:01;25.40;99.90
51783;DHT22;37845;53.196;5.638;2023-06-10T18:12:27;25.40;99.90
51783;DHT22;37845;53.196;5.638;2023-06-10T18:14:53;25.30;99.90
51783;DHT22;37845;53.196;5.638;2023-06-10T18:17:18;25.20;99.90
51783;DHT22;37845;53.196;5.638;2023-06-10T18:19:44;25.10;99.90
51783;DHT22;37845;53.196;5.638;2023-06-10T18:22:10;25.00;99.90
51783;DHT22;37845;53.196;5.638;2023-06-10T18:24:36;24.80;99.90
51783;DHT22;37845;53.196;5.638;2023-06-10T18:27:01;24.60;99.90
51783;DHT22;37845;53.196;5.638;2023-06-10T18:29:27;24.40;99.90
51783;DHT22;37845;53.196;5.638;2023-06-10T18:31:53;24.30;99.90
51783;DHT22;37845;53.196;5.638;2023-06-10T18:34:20;24.10;99.90
51783;DHT22;37845;53.196;5.638;2023-06-10T18:36:46;24.00;99.90
51783;DHT22;37845;53.196;5.638;2023-06-10T18:39:12;23.70;99.90
51783;DHT22;37845;53.196;5.638;2023-06-10T18:41:38;23.60;99.90
51783;DHT22;37845;53.196;5.638;2023-06-10T18:44:03;23.50;99.90
51783;DHT22;37845;53.196;5.638;2023-06-10T18:46:29;23.30;99.90
51783;DHT22;37845;53.196;5.638;2023-06-10T18:48:55;23.20;99.90
51783;DHT22;37845;53.196;5.638;2023-06-10T18:51:21;23.20;99.90
51783;DHT22;37845;53.196;5.638;2023-06-10T18:53:48;23.10;99.90
51783;DHT22;37845;53.196;5.638;2023-06-10T18:56:13;22.90;99.90
51783;DHT22;37845;53.196;5.638;2023-06-10T18:58:39;22.90;99.90
51783;DHT22;37845;53.196;5.638;2023-06-10T19:01:05;22.80;99.90
51783;DHT22;37845;53.196;5.638;2023-06-10T19:03:34;22.80;99.90
51783;DHT22;37845;53.196;5.638;2023-06-10T19:06:00;22.70;99.90
51783;DHT22;37845;53.196;5.638;2023-06-10T19:08:28;22.50;99.90
51783;DHT22;37845;53.196;5.638;2023-06-10T19:10:54;22.50;99.90
51783;DHT22;37845;53.196;5.638;2023-06-10T19:13:20;22.40;99.90
51783;DHT22;37845;53.196;5.638;2023-06-10T19:15:49;22.30;99.90
51783;DHT22;37845;53.196;5.638;2023-06-10T19:18:15;21.60;99.90
51783;DHT22;37845;53.196;5.638;2023-06-10T19:20:41;22.10;99.90
51783;DHT22;37845;53.196;5.638;2023-06-10T19:23:11;22.00;99.90
51783;DHT22;37845;53.196;5.638;2023-06-10T19:25:37;22.20;99.90
51783;DHT22;37845;53.196;5.638;2023-06-10T19:30:38;21.90;99.90
51783;DHT22;37845;53.196;5.638;2023-06-10T19:33:04;21.80;99.90
51783;DHT22;37845;53.196;5.638;2023-06-10T19:35:30;21.70;99.90
51783;DHT22;37845;53.196;5.638;2023-06-10T19:37:56;21.50;99.90
51783;DHT22;37845;53.196;5.638;2023-06-10T19:40:21;21.60;99.90
51783;DHT22;37845;53.196;5.638;2023-06-10T19:42:47;21.60;99.90
51783;DHT22;37845;53.196;5.638;2023-06-10T19:45:16;21.40;99.90
51783;DHT22;37845;53.196;5.638;2023-06-10T19:47:57;21.10;99.90
51783;DHT22;37845;53.196;5.638;2023-06-10T19:50:26;21.10;99.90
51783;DHT22;37845;53.196;5.638;2023-06-10T19:53:10;21.10;99.90
51783;DHT22;37845;53.196;5.638;2023-06-10T19:55:41;21.20;99.90
51783;DHT22;37845;53.196;5.638;2023-06-10T19:58:07;21.00;99.90
51783;DHT22;37845;53.196;5.638;2023-06-10T20:00:33;21.00;99.90
51783;DHT22;37845;53.196;5.638;2023-06-10T20:02:58;20.80;99.90
51783;DHT22;37845;53.196;5.638;2023-06-10T20:05:24;20.80;99.90
51783;DHT22;37845;53.196;5.638;2023-06-10T20:07:50;20.70;99.90
51783;DHT22;37845;53.196;5.638;2023-06-10T20:10:16;20.70;99.90
51783;DHT22;37845;53.196;5.638;2023-06-10T20:12:43;20.60;99.90
51783;DHT22;37845;53.196;5.638;2023-06-10T20:15:09;20.60;99.90
51783;DHT22;37845;53.196;5.638;2023-06-10T20:17:35;20.50;99.90
51783;DHT22;37845;53.196;5.638;2023-06-10T20:20:01;20.50;99.90
51783;DHT22;37845;53.196;5.638;2023-06-10T20:22:27;20.50;99.90
51783;DHT22;37845;53.196;5.638;2023-06-10T20:24:58;20.40;99.90
51783;DHT22;37845;53.196;5.638;2023-06-10T20:27:24;20.40;99.90
51783;DHT22;37845;53.196;5.638;2023-06-10T20:29:50;20.30;99.90
51783;DHT22;37845;53.196;5.638;2023-06-10T20:32:16;20.30;99.90
51783;DHT22;37845;53.196;5.638;2023-06-10T20:34:41;20.30;99.90
51783;DHT22;37845;53.196;5.638;2023-06-10T20:37:07;20.20;99.90
51783;DHT22;37845;53.196;5.638;2023-06-10T20:39:33;20.10;99.90
51783;DHT22;37845;53.196;5.638;2023-06-10T20:41:59;20.00;99.90
51783;DHT22;37845;53.196;5.638;2023-06-10T20:44:25;20.00;99.90
51783;DHT22;37845;53.196;5.638;2023-06-10T20:46:50;19.90;99.90
51783;DHT22;37845;53.196;5.638;2023-06-10T20:49:31;19.90;99.90
51783;DHT22;37845;53.196;5.638;2023-06-10T20:51:57;19.90;99.90
51783;DHT22;37845;53.196;5.638;2023-06-10T20:54:22;19.80;99.90
51783;DHT22;37845;53.196;5.638;2023-06-10T20:56:48;19.80;99.90
51783;DHT22;37845;53.196;5.638;2023-06-10T20:59:14;19.70;99.90
51783;DHT22;37845;53.196;5.638;2023-06-10T21:01:40;19.70;99.90
51783;DHT22;37845;53.196;5.638;2023-06-10T21:04:07;19.70;99.90
51783;DHT22;37845;53.196;5.638;2023-06-10T21:06:33;19.60;99.90
51783;DHT22;37845;53.196;5.638;2023-06-10T21:08:58;19.60;99.90
51783;DHT22;37845;53.196;5.638;2023-06-10T21:11:25;19.60;99.90
51783;DHT22;37845;53.196;5.638;2023-06-10T21:13:51;19.60;99.90
51783;DHT22;37845;53.196;5.638;2023-06-10T21:16:17;19.60;99.90
51783;DHT22;37845;53.196;5.638;2023-06-10T21:18:43;19.50;99.90
51783;DHT22;37845;53.196;5.638;2023-06-10T21:21:08;19.40;99.90
51783;DHT22;37845;53.196;5.638;2023-06-10T21:23:34;19.50;99.90
51783;DHT22;37845;53.196;5.638;2023-06-10T21:26:00;19.40;99.90
51783;DHT22;37845;53.196;5.638;2023-06-10T21:28:26;19.40;99.90
51783;DHT22;37845;53.196;5.638;2023-06-10T21:30:52;19.30;99.90
51783;DHT22;37845;53.196;5.638;2023-06-10T21:33:18;19.30;99.90
51783;DHT22;37845;53.196;5.638;2023-06-10T21:35:47;19.20;99.90
51783;DHT22;37845;53.196;5.638;2023-06-10T21:38:12;19.20;99.90
51783;DHT22;37845;53.196;5.638;2023-06-10T21:40:38;19.20;99.90
51783;DHT22;37845;53.196;5.638;2023-06-10T21:43:04;19.10;99.90
51783;DHT22;37845;53.196;5.638;2023-06-10T21:45:30;19.10;99.90
51783;DHT22;37845;53.196;5.638;2023-06-10T21:47:55;19.10;99.90
51783;DHT22;37845;53.196;5.638;2023-06-10T21:50:21;19.10;99.90
51783;DHT22;37845;53.196;5.638;2023-06-10T21:52:48;19.00;99.90
51783;DHT22;37845;53.196;5.638;2023-06-10T21:55:14;19.10;99.90
51783;DHT22;37845;53.196;5.638;2023-06-10T21:57:40;19.00;99.90
51783;DHT22;37845;53.196;5.638;2023-06-10T22:00:06;19.00;99.90
51783;DHT22;37845;53.196;5.638;2023-06-10T22:02:40;18.90;99.90
51783;DHT22;37845;53.196;5.638;2023-06-10T22:05:06;18.80;99.90
51783;DHT22;37845;53.196;5.638;2023-06-10T22:07:33;18.80;99.90
51783;DHT22;37845;53.196;5.638;2023-06-10T22:09:59;18.80;99.90
51783;DHT22;37845;53.196;5.638;2023-06-10T22:12:25;18.80;99.90
51783;DHT22;37845;53.196;5.638;2023-06-10T22:14:50;18.80;99.90
51783;DHT22;37845;53.196;5.638;2023-06-10T22:17:16;18.80;99.90